Liberta — V2CM3 — position and weather

sailwx.info

Track history (hours):
 
Tides and Currents Weather Stations Pressure Air Temp Water Temp Dewpoint Dewpoint Depression Visibility Wind Speed Wind Dir Waves Ship Positions

Liberta

Last reported at 2016-Jul-28 18:29 UTC. Time now 2016-Jul-30 01:58 UTC.
Position S 30°24' E 030°56'.

Length 138 m; draft 5.3 m.

Type: Cargo ship. MMSI: 305043000.

Date/timePositionNaut miles runAvg speedWind from/ knotsBaromVisibWave heightAir tempDewpointWater temp
2016-Jul-28 18:29S 30°24' E 030°56'1212.6
2016-Jul-28 17:33S 30°14' E 031°02'1212.2
2016-Jul-28 16:34S 30°03' E 031°09'9 8.8
2016-Jul-28 15:33S 29°55' E 031°10'7 7.1
2016-Jul-28 14:33S 29°53' E 031°02'0 0.2
2016-Jul-28 13:29S 29°53' E 031°02'0 0.0
2016-Jul-28 12:32S 29°53' E 031°02'0 0.0
2016-Jul-28 11:32S 29°53' E 031°02'0 0.0
2016-Jul-28 10:32S 29°53' E 031°02'0 0.0
2016-Jul-28 09:32S 29°53' E 031°02'0 0.0
2016-Jul-28 08:32S 29°53' E 031°02'0 0.0
2016-Jul-28 07:32S 29°53' E 031°02'0 0.0
2016-Jul-28 06:32S 29°53' E 031°02'0 0.0
2016-Jul-28 05:32S 29°53' E 031°02'0 0.0
2016-Jul-28 04:26S 29°53' E 031°02'0 0.0
2016-Jul-28 03:32S 29°53' E 031°02'0 0.0
2016-Jul-28 02:32S 29°53' E 031°02'0 0.0
2016-Jul-28 01:32S 29°53' E 031°02'0 0.0
2016-Jul-28 00:29S 29°53' E 031°02'0 0.0
2016-Jul-27 23:29S 29°53' E 031°02'0 0.0
2016-Jul-27 22:32S 29°53' E 031°02'2 2.0
2016-Jul-27 21:33S 29°52' E 031°04'2 2.3
2016-Jul-27 20:33S 29°50' E 031°06'2 1.9
2016-Jul-27 19:33S 29°50' E 031°08'2 1.8
2016-Jul-27 18:34S 29°48' E 031°09'2 2.5
2016-Jul-27 17:33S 29°46' E 031°08'0 0.2
2016-Jul-27 16:33S 29°46' E 031°08'0 0.0
2016-Jul-27 15:33S 29°46' E 031°08'0 0.0
2016-Jul-27 14:30S 29°46' E 031°08'0 0.0
2016-Jul-27 13:33S 29°46' E 031°08'0 0.0
2016-Jul-27 12:33S 29°46' E 031°08'0 0.0
2016-Jul-27 11:33S 29°46' E 031°08'0 0.0
2016-Jul-27 10:33S 29°46' E 031°08'0 0.0
2016-Jul-27 09:30S 29°46' E 031°08'0 0.1
2016-Jul-27 08:33S 29°46' E 031°08'0 0.1
2016-Jul-27 07:33S 29°46' E 031°08'0 0.0
2016-Jul-27 06:33S 29°46' E 031°08'0 0.0
2016-Jul-27 05:30S 29°46' E 031°08'0 0.0
2016-Jul-27 04:30S 29°46' E 031°08'0 0.0
2016-Jul-27 03:33S 29°46' E 031°08'0 0.0
2016-Jul-27 02:33S 29°46' E 031°08'0 0.0
2016-Jul-27 01:33S 29°46' E 031°08'0 0.0
2016-Jul-27 00:33S 29°46' E 031°08'0 0.0
2016-Jul-26 23:33S 29°46' E 031°08'0 0.0
2016-Jul-26 22:33S 29°46' E 031°08'0 0.0
2016-Jul-26 21:33S 29°46' E 031°08'0 0.0
2016-Jul-26 20:33S 29°46' E 031°08'0 0.0
2016-Jul-26 19:33S 29°46' E 031°08'0 0.0
2016-Jul-26 18:33S 29°46' E 031°08'0 0.0
2016-Jul-26 17:33S 29°46' E 031°08'0 0.0
2016-Jul-26 16:33S 29°46' E 031°08'0 0.0
2016-Jul-26 15:33S 29°46' E 031°08'0 0.0
2016-Jul-26 14:33S 29°46' E 031°08'0 0.0
2016-Jul-26 13:33S 29°46' E 031°08'0 0.0
2016-Jul-26 12:33S 29°46' E 031°08'0 0.0
2016-Jul-26 11:33S 29°46' E 031°08'0 0.0
2016-Jul-26 10:33S 29°46' E 031°08'0 0.0
2016-Jul-26 09:33S 29°46' E 031°08'0 0.0
2016-Jul-26 08:33S 29°46' E 031°08'0 0.0
2016-Jul-26 07:33S 29°46' E 031°08'0 0.0
2016-Jul-26 06:33S 29°46' E 031°08'0 0.0
2016-Jul-26 05:33S 29°46' E 031°08'0 0.0
2016-Jul-26 04:33S 29°46' E 031°08'0 0.0
2016-Jul-26 03:33S 29°46' E 031°08'0 0.1
2016-Jul-26 02:30S 29°46' E 031°08'0 0.1
2016-Jul-26 01:33S 29°46' E 031°08'0 0.0
2016-Jul-26 00:33S 29°46' E 031°09'5 5.3
2016-Jul-25 23:34S 29°47' E 031°14'9 9.0
2016-Jul-25 22:34S 29°46' E 031°25'1211.5
2016-Jul-25 21:34S 29°43' E 031°38'  
Track history (hours):
 
Tides and Currents Weather Stations Pressure Air Temp Water Temp Dewpoint Dewpoint Depression Visibility Wind Speed Wind Dir Waves Ship Positions

Liberta

Last reported at 2016-Jul-28 18:29 UTC. Time now 2016-Jul-30 01:58 UTC.
Position S 30°24' E 030°56'.

Length 138 m; draft 5.3 m.

Type: Cargo ship. MMSI: 305043000.

Date/timePositionNaut miles runAvg speedWind from/ knotsBaromVisibWave heightAir tempDewpointWater temp
2016-Jul-28 18:29S 30°24' E 030°56'1212.6
2016-Jul-28 17:33S 30°14' E 031°02'1212.2
2016-Jul-28 16:34S 30°03' E 031°09'9 8.8
2016-Jul-28 15:33S 29°55' E 031°10'7 7.1
2016-Jul-28 14:33S 29°53' E 031°02'0 0.2
2016-Jul-28 13:29S 29°53' E 031°02'0 0.0
2016-Jul-28 12:32S 29°53' E 031°02'0 0.0
2016-Jul-28 11:32S 29°53' E 031°02'0 0.0
2016-Jul-28 10:32S 29°53' E 031°02'0 0.0
2016-Jul-28 09:32S 29°53' E 031°02'0 0.0
2016-Jul-28 08:32S 29°53' E 031°02'0 0.0
2016-Jul-28 07:32S 29°53' E 031°02'0 0.0
2016-Jul-28 06:32S 29°53' E 031°02'0 0.0
2016-Jul-28 05:32S 29°53' E 031°02'0 0.0
2016-Jul-28 04:26S 29°53' E 031°02'0 0.0
2016-Jul-28 03:32S 29°53' E 031°02'0 0.0
2016-Jul-28 02:32S 29°53' E 031°02'0 0.0
2016-Jul-28 01:32S 29°53' E 031°02'0 0.0
2016-Jul-28 00:29S 29°53' E 031°02'0 0.0
2016-Jul-27 23:29S 29°53' E 031°02'0 0.0
2016-Jul-27 22:32S 29°53' E 031°02'2 2.0
2016-Jul-27 21:33S 29°52' E 031°04'2 2.3
2016-Jul-27 20:33S 29°50' E 031°06'2 1.9
2016-Jul-27 19:33S 29°50' E 031°08'2 1.8
2016-Jul-27 18:34S 29°48' E 031°09'2 2.5
2016-Jul-27 17:33S 29°46' E 031°08'0 0.2
2016-Jul-27 16:33S 29°46' E 031°08'0 0.0
2016-Jul-27 15:33S 29°46' E 031°08'0 0.0
2016-Jul-27 14:30S 29°46' E 031°08'0 0.0
2016-Jul-27 13:33S 29°46' E 031°08'0 0.0
2016-Jul-27 12:33S 29°46' E 031°08'0 0.0
2016-Jul-27 11:33S 29°46' E 031°08'0 0.0
2016-Jul-27 10:33S 29°46' E 031°08'0 0.0
2016-Jul-27 09:30S 29°46' E 031°08'0 0.1
2016-Jul-27 08:33S 29°46' E 031°08'0 0.1
2016-Jul-27 07:33S 29°46' E 031°08'0 0.0
2016-Jul-27 06:33S 29°46' E 031°08'0 0.0
2016-Jul-27 05:30S 29°46' E 031°08'0 0.0
2016-Jul-27 04:30S 29°46' E 031°08'0 0.0
2016-Jul-27 03:33S 29°46' E 031°08'0 0.0
2016-Jul-27 02:33S 29°46' E 031°08'0 0.0
2016-Jul-27 01:33S 29°46' E 031°08'0 0.0
2016-Jul-27 00:33S 29°46' E 031°08'0 0.0
2016-Jul-26 23:33S 29°46' E 031°08'0 0.0
2016-Jul-26 22:33S 29°46' E 031°08'0 0.0
2016-Jul-26 21:33S 29°46' E 031°08'0 0.0
2016-Jul-26 20:33S 29°46' E 031°08'0 0.0
2016-Jul-26 19:33S 29°46' E 031°08'0 0.0
2016-Jul-26 18:33S 29°46' E 031°08'0 0.0
2016-Jul-26 17:33S 29°46' E 031°08'0 0.0
2016-Jul-26 16:33S 29°46' E 031°08'0 0.0
2016-Jul-26 15:33S 29°46' E 031°08'0 0.0
2016-Jul-26 14:33S 29°46' E 031°08'0 0.0
2016-Jul-26 13:33S 29°46' E 031°08'0 0.0
2016-Jul-26 12:33S 29°46' E 031°08'0 0.0
2016-Jul-26 11:33S 29°46' E 031°08'0 0.0
2016-Jul-26 10:33S 29°46' E 031°08'0 0.0
2016-Jul-26 09:33S 29°46' E 031°08'0 0.0
2016-Jul-26 08:33S 29°46' E 031°08'0 0.0
2016-Jul-26 07:33S 29°46' E 031°08'0 0.0
2016-Jul-26 06:33S 29°46' E 031°08'0 0.0
2016-Jul-26 05:33S 29°46' E 031°08'0 0.0
2016-Jul-26 04:33S 29°46' E 031°08'0 0.0
2016-Jul-26 03:33S 29°46' E 031°08'0 0.1
2016-Jul-26 02:30S 29°46' E 031°08'0 0.1
2016-Jul-26 01:33S 29°46' E 031°08'0 0.0
2016-Jul-26 00:33S 29°46' E 031°09'5 5.3
2016-Jul-25 23:34S 29°47' E 031°14'9 9.0
2016-Jul-25 22:34S 29°46' E 031°25'1211.5
2016-Jul-25 21:34S 29°43' E 031°38'  

Dump ship's entire track history